sensor_id;sensor_type;location;lat;lon;timestamp;P1;durP1;ratioP1;P2;durP2;ratioP2
39890;SDS011;25564;53.312;9.790;2022-10-31T00:01:58;19.37;;;9.70;;
39890;SDS011;25564;53.312;9.790;2022-10-31T00:04:29;20.67;;;11.00;;
39890;SDS011;25564;53.312;9.790;2022-10-31T00:07:01;23.87;;;10.80;;
39890;SDS011;25564;53.312;9.790;2022-10-31T00:09:32;19.43;;;10.60;;
39890;SDS011;25564;53.312;9.790;2022-10-31T00:12:03;26.03;;;11.53;;
39890;SDS011;25564;53.312;9.790;2022-10-31T00:14:35;26.20;;;11.80;;
39890;SDS011;25564;53.312;9.790;2022-10-31T00:17:06;22.10;;;11.40;;
39890;SDS011;25564;53.312;9.790;2022-10-31T00:19:37;21.83;;;11.60;;
39890;SDS011;25564;53.312;9.790;2022-10-31T00:22:09;26.67;;;12.03;;
39890;SDS011;25564;53.312;9.790;2022-10-31T00:24:41;21.27;;;11.13;;
39890;SDS011;25564;53.312;9.790;2022-10-31T00:27:12;22.93;;;12.40;;
39890;SDS011;25564;53.312;9.790;2022-10-31T00:29:43;24.40;;;12.03;;
39890;SDS011;25564;53.312;9.790;2022-10-31T00:32:15;27.20;;;11.13;;
39890;SDS011;25564;53.312;9.790;2022-10-31T00:34:46;22.73;;;11.37;;
39890;SDS011;25564;53.312;9.790;2022-10-31T00:37:17;24.17;;;10.93;;
39890;SDS011;25564;53.312;9.790;2022-10-31T00:39:48;22.43;;;9.37;;
39890;SDS011;25564;53.312;9.790;2022-10-31T00:42:20;31.40;;;10.73;;
39890;SDS011;25564;53.312;9.790;2022-10-31T00:44:51;19.97;;;9.77;;
39890;SDS011;25564;53.312;9.790;2022-10-31T00:47:23;21.27;;;10.37;;
39890;SDS011;25564;53.312;9.790;2022-10-31T00:49:54;20.70;;;9.20;;
39890;SDS011;25564;53.312;9.790;2022-10-31T00:52:25;17.53;;;9.57;;
39890;SDS011;25564;53.312;9.790;2022-10-31T00:54:57;21.70;;;10.87;;
39890;SDS011;25564;53.312;9.790;2022-10-31T00:57:28;25.60;;;11.93;;
39890;SDS011;25564;53.312;9.790;2022-10-31T00:59:59;17.10;;;9.83;;
39890;SDS011;25564;53.312;9.790;2022-10-31T01:02:30;23.27;;;10.63;;
39890;SDS011;25564;53.312;9.790;2022-10-31T01:05:02;20.10;;;9.27;;
39890;SDS011;25564;53.312;9.790;2022-10-31T01:07:37;18.10;;;9.33;;
39890;SDS011;25564;53.312;9.790;2022-10-31T01:10:10;24.13;;;11.63;;
39890;SDS011;25564;53.312;9.790;2022-10-31T01:12:43;15.70;;;8.57;;
39890;SDS011;25564;53.312;9.790;2022-10-31T01:15:18;16.17;;;8.07;;
39890;SDS011;25564;53.312;9.790;2022-10-31T01:17:51;16.43;;;8.80;;
39890;SDS011;25564;53.312;9.790;2022-10-31T01:20:22;18.07;;;8.80;;
39890;SDS011;25564;53.312;9.790;2022-10-31T01:22:53;21.93;;;11.93;;
39890;SDS011;25564;53.312;9.790;2022-10-31T01:25:25;22.90;;;10.63;;
39890;SDS011;25564;53.312;9.790;2022-10-31T01:27:56;33.00;;;15.70;;
39890;SDS011;25564;53.312;9.790;2022-10-31T01:30:28;29.73;;;14.00;;
39890;SDS011;25564;53.312;9.790;2022-10-31T01:32:59;24.17;;;12.50;;
39890;SDS011;25564;53.312;9.790;2022-10-31T01:35:31;25.57;;;12.33;;
39890;SDS011;25564;53.312;9.790;2022-10-31T01:38:02;27.20;;;14.53;;
39890;SDS011;25564;53.312;9.790;2022-10-31T01:40:33;39.43;;;15.57;;
39890;SDS011;25564;53.312;9.790;2022-10-31T01:43:07;27.13;;;12.73;;
39890;SDS011;25564;53.312;9.790;2022-10-31T01:45:44;29.17;;;14.07;;
39890;SDS011;25564;53.312;9.790;2022-10-31T01:48:24;33.13;;;15.47;;
39890;SDS011;25564;53.312;9.790;2022-10-31T01:50:58;36.03;;;17.00;;
39890;SDS011;25564;53.312;9.790;2022-10-31T01:53:30;33.17;;;15.27;;
39890;SDS011;25564;53.312;9.790;2022-10-31T01:56:02;30.27;;;14.23;;
39890;SDS011;25564;53.312;9.790;2022-10-31T01:58:34;36.27;;;15.20;;
39890;SDS011;25564;53.312;9.790;2022-10-31T02:01:06;40.27;;;16.23;;
39890;SDS011;25564;53.312;9.790;2022-10-31T02:03:38;29.73;;;14.90;;
39890;SDS011;25564;53.312;9.790;2022-10-31T02:06:11;34.33;;;16.57;;
39890;SDS011;25564;53.312;9.790;2022-10-31T02:08:52;27.93;;;13.30;;
39890;SDS011;25564;53.312;9.790;2022-10-31T02:11:24;24.13;;;13.57;;
39890;SDS011;25564;53.312;9.790;2022-10-31T02:13:58;29.13;;;13.63;;
39890;SDS011;25564;53.312;9.790;2022-10-31T02:16:32;26.07;;;14.40;;
39890;SDS011;25564;53.312;9.790;2022-10-31T02:19:04;36.87;;;15.63;;
39890;SDS011;25564;53.312;9.790;2022-10-31T02:21:45;32.27;;;14.47;;
39890;SDS011;25564;53.312;9.790;2022-10-31T02:27:50;43.77;;;18.03;;
39890;SDS011;25564;53.312;9.790;2022-10-31T02:30:25;33.33;;;17.27;;
39890;SDS011;25564;53.312;9.790;2022-10-31T02:36:13;44.30;;;19.30;;
39890;SDS011;25564;53.312;9.790;2022-10-31T02:39:04;30.63;;;15.40;;
39890;SDS011;25564;53.312;9.790;2022-10-31T02:44:49;62.17;;;22.77;;
39890;SDS011;25564;53.312;9.790;2022-10-31T02:47:27;59.40;;;20.53;;
39890;SDS011;25564;53.312;9.790;2022-10-31T02:50:06;35.80;;;16.27;;
39890;SDS011;25564;53.312;9.790;2022-10-31T02:52:42;41.37;;;17.53;;
39890;SDS011;25564;53.312;9.790;2022-10-31T02:57:57;48.63;;;22.90;;
39890;SDS011;25564;53.312;9.790;2022-10-31T03:00:36;64.30;;;22.77;;
39890;SDS011;25564;53.312;9.790;2022-10-31T03:06:00;52.92;;;20.73;;
39890;SDS011;25564;53.312;9.790;2022-10-31T03:08:44;67.87;;;24.27;;
39890;SDS011;25564;53.312;9.790;2022-10-31T03:11:31;75.87;;;23.80;;
39890;SDS011;25564;53.312;9.790;2022-10-31T03:14:17;75.60;;;25.53;;
39890;SDS011;25564;53.312;9.790;2022-10-31T03:16:54;183.13;;;35.50;;
39890;SDS011;25564;53.312;9.790;2022-10-31T03:24:47;150.00;;;29.30;;
39890;SDS011;25564;53.312;9.790;2022-10-31T03:27:23;174.77;;;31.43;;
39890;SDS011;25564;53.312;9.790;2022-10-31T03:29:58;170.90;;;32.07;;
39890;SDS011;25564;53.312;9.790;2022-10-31T03:32:34;190.73;;;33.97;;
39890;SDS011;25564;53.312;9.790;2022-10-31T03:35:09;220.50;;;39.77;;
39890;SDS011;25564;53.312;9.790;2022-10-31T03:37:45;278.58;;;38.80;;
39890;SDS011;25564;53.312;9.790;2022-10-31T03:40:19;225.93;;;35.07;;
39890;SDS011;25564;53.312;9.790;2022-10-31T03:42:58;302.63;;;40.37;;
39890;SDS011;25564;53.312;9.790;2022-10-31T03:45:36;331.20;;;46.27;;
39890;SDS011;25564;53.312;9.790;2022-10-31T03:48:16;201.83;;;34.53;;
39890;SDS011;25564;53.312;9.790;2022-10-31T03:53:41;253.50;;;37.70;;
39890;SDS011;25564;53.312;9.790;2022-10-31T03:56:19;393.97;;;48.77;;
39890;SDS011;25564;53.312;9.790;2022-10-31T03:59:28;429.83;;;53.83;;
39890;SDS011;25564;53.312;9.790;2022-10-31T04:02:07;434.43;;;55.23;;
39890;SDS011;25564;53.312;9.790;2022-10-31T04:04:40;340.37;;;47.20;;
39890;SDS011;25564;53.312;9.790;2022-10-31T04:07:15;390.63;;;47.60;;
39890;SDS011;25564;53.312;9.790;2022-10-31T04:09:48;372.23;;;47.67;;
39890;SDS011;25564;53.312;9.790;2022-10-31T04:12:22;408.30;;;51.33;;
39890;SDS011;25564;53.312;9.790;2022-10-31T04:14:57;349.73;;;46.70;;
39890;SDS011;25564;53.312;9.790;2022-10-31T04:17:31;435.20;;;53.33;;
39890;SDS011;25564;53.312;9.790;2022-10-31T04:20:06;292.75;;;42.97;;
39890;SDS011;25564;53.312;9.790;2022-10-31T04:22:37;375.13;;;48.67;;
39890;SDS011;25564;53.312;9.790;2022-10-31T04:25:09;300.77;;;40.20;;
39890;SDS011;25564;53.312;9.790;2022-10-31T04:27:40;475.87;;;60.23;;
39890;SDS011;25564;53.312;9.790;2022-10-31T04:30:11;386.00;;;50.37;;
39890;SDS011;25564;53.312;9.790;2022-10-31T04:32:43;332.80;;;45.17;;
39890;SDS011;25564;53.312;9.790;2022-10-31T04:35:14;280.43;;;39.67;;
39890;SDS011;25564;53.312;9.790;2022-10-31T04:37:45;294.83;;;41.17;;
39890;SDS011;25564;53.312;9.790;2022-10-31T04:40:16;335.53;;;43.00;;
39890;SDS011;25564;53.312;9.790;2022-10-31T04:42:48;250.07;;;36.67;;
39890;SDS011;25564;53.312;9.790;2022-10-31T04:45:19;153.00;;;31.47;;
39890;SDS011;25564;53.312;9.790;2022-10-31T04:47:51;174.93;;;32.13;;
39890;SDS011;25564;53.312;9.790;2022-10-31T04:50:23;219.83;;;34.27;;
39890;SDS011;25564;53.312;9.790;2022-10-31T04:52:54;88.60;;;25.77;;
39890;SDS011;25564;53.312;9.790;2022-10-31T04:55:25;325.80;;;44.03;;
39890;SDS011;25564;53.312;9.790;2022-10-31T04:57:57;185.77;;;34.80;;
39890;SDS011;25564;53.312;9.790;2022-10-31T05:00:29;176.93;;;31.00;;
39890;SDS011;25564;53.312;9.790;2022-10-31T05:03:00;115.77;;;26.53;;
39890;SDS011;25564;53.312;9.790;2022-10-31T05:05:32;338.33;;;45.50;;
39890;SDS011;25564;53.312;9.790;2022-10-31T05:08:04;203.77;;;34.13;;
39890;SDS011;25564;53.312;9.790;2022-10-31T05:10:35;387.97;;;51.03;;
39890;SDS011;25564;53.312;9.790;2022-10-31T05:13:06;306.37;;;43.07;;
39890;SDS011;25564;53.312;9.790;2022-10-31T05:15:38;163.70;;;30.50;;
39890;SDS011;25564;53.312;9.790;2022-10-31T05:18:09;387.13;;;48.83;;
39890;SDS011;25564;53.312;9.790;2022-10-31T05:20:41;84.37;;;23.77;;
39890;SDS011;25564;53.312;9.790;2022-10-31T05:23:12;198.70;;;34.37;;
39890;SDS011;25564;53.312;9.790;2022-10-31T05:25:43;194.63;;;32.33;;
39890;SDS011;25564;53.312;9.790;2022-10-31T05:28:15;226.10;;;35.73;;
39890;SDS011;25564;53.312;9.790;2022-10-31T05:30:46;238.40;;;37.13;;
39890;SDS011;25564;53.312;9.790;2022-10-31T05:33:17;174.57;;;29.30;;
39890;SDS011;25564;53.312;9.790;2022-10-31T05:35:49;232.00;;;36.23;;
39890;SDS011;25564;53.312;9.790;2022-10-31T05:38:20;243.37;;;34.73;;
39890;SDS011;25564;53.312;9.790;2022-10-31T05:40:54;272.37;;;36.03;;
39890;SDS011;25564;53.312;9.790;2022-10-31T05:43:28;342.30;;;42.97;;
39890;SDS011;25564;53.312;9.790;2022-10-31T05:46:00;230.53;;;34.53;;
39890;SDS011;25564;53.312;9.790;2022-10-31T05:48:31;380.53;;;45.60;;
39890;SDS011;25564;53.312;9.790;2022-10-31T05:51:03;147.13;;;27.67;;
39890;SDS011;25564;53.312;9.790;2022-10-31T05:53:34;318.03;;;36.43;;
39890;SDS011;25564;53.312;9.790;2022-10-31T05:56:05;137.03;;;24.90;;
39890;SDS011;25564;53.312;9.790;2022-10-31T05:58:37;282.17;;;36.47;;
39890;SDS011;25564;53.312;9.790;2022-10-31T06:01:08;268.73;;;34.97;;
39890;SDS011;25564;53.312;9.790;2022-10-31T06:03:40;271.53;;;36.10;;
39890;SDS011;25564;53.312;9.790;2022-10-31T06:06:11;202.97;;;29.33;;
39890;SDS011;25564;53.312;9.790;2022-10-31T06:08:42;276.83;;;36.43;;
39890;SDS011;25564;53.312;9.790;2022-10-31T06:11:14;189.07;;;29.70;;
39890;SDS011;25564;53.312;9.790;2022-10-31T06:13:45;210.17;;;30.03;;
39890;SDS011;25564;53.312;9.790;2022-10-31T06:16:16;154.17;;;27.67;;
39890;SDS011;25564;53.312;9.790;2022-10-31T06:18:48;137.97;;;24.43;;
39890;SDS011;25564;53.312;9.790;2022-10-31T06:21:19;143.60;;;26.80;;
39890;SDS011;25564;53.312;9.790;2022-10-31T06:23:50;112.57;;;21.97;;
39890;SDS011;25564;53.312;9.790;2022-10-31T06:26:22;158.50;;;24.57;;
39890;SDS011;25564;53.312;9.790;2022-10-31T06:28:53;360.57;;;41.20;;
39890;SDS011;25564;53.312;9.790;2022-10-31T06:31:27;197.03;;;27.87;;
39890;SDS011;25564;53.312;9.790;2022-10-31T06:33:59;133.70;;;24.93;;
39890;SDS011;25564;53.312;9.790;2022-10-31T06:36:30;195.50;;;30.17;;
39890;SDS011;25564;53.312;9.790;2022-10-31T06:39:01;216.87;;;28.27;;
39890;SDS011;25564;53.312;9.790;2022-10-31T06:41:33;203.03;;;26.70;;
39890;SDS011;25564;53.312;9.790;2022-10-31T06:44:04;318.53;;;38.00;;
39890;SDS011;25564;53.312;9.790;2022-10-31T06:46:39;291.97;;;34.13;;
39890;SDS011;25564;53.312;9.790;2022-10-31T06:49:10;308.77;;;36.27;;
39890;SDS011;25564;53.312;9.790;2022-10-31T06:51:42;354.03;;;41.60;;
39890;SDS011;25564;53.312;9.790;2022-10-31T06:54:13;239.57;;;30.77;;
39890;SDS011;25564;53.312;9.790;2022-10-31T06:56:45;270.93;;;31.33;;
39890;SDS011;25564;53.312;9.790;2022-10-31T06:59:18;216.40;;;30.10;;
39890;SDS011;25564;53.312;9.790;2022-10-31T07:01:49;246.37;;;31.90;;
39890;SDS011;25564;53.312;9.790;2022-10-31T07:04:21;206.87;;;29.13;;
39890;SDS011;25564;53.312;9.790;2022-10-31T07:06:53;276.20;;;34.40;;
39890;SDS011;25564;53.312;9.790;2022-10-31T07:09:25;371.43;;;41.80;;
39890;SDS011;25564;53.312;9.790;2022-10-31T07:11:56;405.10;;;45.43;;
39890;SDS011;25564;53.312;9.790;2022-10-31T07:14:27;390.30;;;46.03;;
39890;SDS011;25564;53.312;9.790;2022-10-31T07:16:58;192.73;;;28.97;;
39890;SDS011;25564;53.312;9.790;2022-10-31T07:19:30;147.60;;;26.37;;
39890;SDS011;25564;53.312;9.790;2022-10-31T07:22:01;304.70;;;39.67;;
39890;SDS011;25564;53.312;9.790;2022-10-31T07:24:33;248.43;;;34.07;;
39890;SDS011;25564;53.312;9.790;2022-10-31T07:27:04;166.20;;;28.50;;
39890;SDS011;25564;53.312;9.790;2022-10-31T07:29:35;143.60;;;25.83;;
39890;SDS011;25564;53.312;9.790;2022-10-31T07:32:07;129.97;;;22.80;;
39890;SDS011;25564;53.312;9.790;2022-10-31T07:34:38;123.97;;;25.30;;
39890;SDS011;25564;53.312;9.790;2022-10-31T07:37:16;101.70;;;24.17;;
39890;SDS011;25564;53.312;9.790;2022-10-31T07:39:48;138.53;;;24.63;;
39890;SDS011;25564;53.312;9.790;2022-10-31T07:42:19;87.37;;;20.57;;
39890;SDS011;25564;53.312;9.790;2022-10-31T07:44:50;155.00;;;26.77;;
39890;SDS011;25564;53.312;9.790;2022-10-31T07:47:26;147.07;;;25.27;;
39890;SDS011;25564;53.312;9.790;2022-10-31T07:49:58;131.17;;;24.47;;
39890;SDS011;25564;53.312;9.790;2022-10-31T07:52:29;74.87;;;21.63;;
39890;SDS011;25564;53.312;9.790;2022-10-31T07:55:00;112.30;;;23.97;;
39890;SDS011;25564;53.312;9.790;2022-10-31T07:57:32;68.23;;;20.63;;
39890;SDS011;25564;53.312;9.790;2022-10-31T08:00:05;87.87;;;22.47;;
39890;SDS011;25564;53.312;9.790;2022-10-31T08:02:38;81.90;;;22.13;;
39890;SDS011;25564;53.312;9.790;2022-10-31T08:05:09;96.73;;;22.87;;
39890;SDS011;25564;53.312;9.790;2022-10-31T08:07:41;71.83;;;21.07;;
39890;SDS011;25564;53.312;9.790;2022-10-31T08:10:12;100.73;;;22.47;;
39890;SDS011;25564;53.312;9.790;2022-10-31T08:12:44;84.80;;;20.57;;
39890;SDS011;25564;53.312;9.790;2022-10-31T08:15:15;53.60;;;19.43;;
39890;SDS011;25564;53.312;9.790;2022-10-31T08:17:46;75.33;;;20.73;;
39890;SDS011;25564;53.312;9.790;2022-10-31T08:20:18;68.93;;;20.70;;
39890;SDS011;25564;53.312;9.790;2022-10-31T08:22:56;83.03;;;22.27;;
39890;SDS011;25564;53.312;9.790;2022-10-31T08:25:32;73.63;;;20.37;;
39890;SDS011;25564;53.312;9.790;2022-10-31T08:28:10;82.13;;;23.53;;
39890;SDS011;25564;53.312;9.790;2022-10-31T08:30:42;52.13;;;19.03;;
39890;SDS011;25564;53.312;9.790;2022-10-31T08:33:14;69.40;;;20.03;;
39890;SDS011;25564;53.312;9.790;2022-10-31T08:35:47;59.50;;;18.97;;
39890;SDS011;25564;53.312;9.790;2022-10-31T08:38:19;87.27;;;20.43;;
39890;SDS011;25564;53.312;9.790;2022-10-31T08:40:50;84.57;;;21.37;;
39890;SDS011;25564;53.312;9.790;2022-10-31T08:43:22;63.33;;;21.77;;
39890;SDS011;25564;53.312;9.790;2022-10-31T08:45:53;58.03;;;21.33;;
39890;SDS011;25564;53.312;9.790;2022-10-31T08:48:26;55.77;;;19.10;;
39890;SDS011;25564;53.312;9.790;2022-10-31T08:50:57;43.40;;;19.43;;
39890;SDS011;25564;53.312;9.790;2022-10-31T08:53:30;53.43;;;20.23;;
39890;SDS011;25564;53.312;9.790;2022-10-31T08:56:02;49.83;;;19.17;;
39890;SDS011;25564;53.312;9.790;2022-10-31T08:58:33;43.00;;;19.27;;
39890;SDS011;25564;53.312;9.790;2022-10-31T09:01:10;35.37;;;16.60;;
39890;SDS011;25564;53.312;9.790;2022-10-31T09:03:42;34.47;;;15.57;;
39890;SDS011;25564;53.312;9.790;2022-10-31T09:06:13;39.63;;;17.13;;
39890;SDS011;25564;53.312;9.790;2022-10-31T09:08:45;39.80;;;15.53;;
39890;SDS011;25564;53.312;9.790;2022-10-31T09:11:16;38.47;;;16.60;;
39890;SDS011;25564;53.312;9.790;2022-10-31T09:13:47;33.30;;;15.70;;
39890;SDS011;25564;53.312;9.790;2022-10-31T09:16:19;34.43;;;15.83;;
39890;SDS011;25564;53.312;9.790;2022-10-31T09:18:50;33.27;;;15.13;;
39890;SDS011;25564;53.312;9.790;2022-10-31T09:21:22;27.17;;;14.27;;
39890;SDS011;25564;53.312;9.790;2022-10-31T09:23:53;40.37;;;15.50;;
39890;SDS011;25564;53.312;9.790;2022-10-31T09:26:25;29.27;;;16.10;;
39890;SDS011;25564;53.312;9.790;2022-10-31T09:28:56;30.00;;;14.90;;
39890;SDS011;25564;53.312;9.790;2022-10-31T09:31:29;26.17;;;14.90;;
39890;SDS011;25564;53.312;9.790;2022-10-31T09:34:00;35.97;;;16.30;;
39890;SDS011;25564;53.312;9.790;2022-10-31T09:36:32;34.80;;;16.83;;
39890;SDS011;25564;53.312;9.790;2022-10-31T09:39:03;32.43;;;14.70;;
39890;SDS011;25564;53.312;9.790;2022-10-31T09:47:25;43.00;;;18.93;;
39890;SDS011;25564;53.312;9.790;2022-10-31T09:50:17;35.83;;;16.97;;
39890;SDS011;25564;53.312;9.790;2022-10-31T09:53:02;28.03;;;14.30;;
39890;SDS011;25564;53.312;9.790;2022-10-31T09:55:37;32.37;;;15.27;;
39890;SDS011;25564;53.312;9.790;2022-10-31T09:58:29;30.13;;;15.00;;
39890;SDS011;25564;53.312;9.790;2022-10-31T10:01:09;31.40;;;14.40;;
39890;SDS011;25564;53.312;9.790;2022-10-31T10:03:49;27.10;;;14.03;;
39890;SDS011;25564;53.312;9.790;2022-10-31T10:06:29;33.30;;;14.83;;
39890;SDS011;25564;53.312;9.790;2022-10-31T10:09:06;28.93;;;14.37;;
39890;SDS011;25564;53.312;9.790;2022-10-31T10:15:02;30.03;;;14.87;;
39890;SDS011;25564;53.312;9.790;2022-10-31T10:20:56;29.53;;;14.53;;
39890;SDS011;25564;53.312;9.790;2022-10-31T10:23:35;29.17;;;14.30;;
39890;SDS011;25564;53.312;9.790;2022-10-31T10:26:36;30.60;;;14.77;;
39890;SDS011;25564;53.312;9.790;2022-10-31T10:32:04;37.33;;;14.30;;
39890;SDS011;25564;53.312;9.790;2022-10-31T10:34:45;30.87;;;14.30;;
39890;SDS011;25564;53.312;9.790;2022-10-31T10:37:26;25.93;;;12.87;;
39890;SDS011;25564;53.312;9.790;2022-10-31T10:40:06;26.63;;;12.70;;
39890;SDS011;25564;53.312;9.790;2022-10-31T10:46:04;26.13;;;12.77;;
39890;SDS011;25564;53.312;9.790;2022-10-31T10:49:18;25.20;;;13.07;;
39890;SDS011;25564;53.312;9.790;2022-10-31T10:52:06;28.80;;;13.53;;
39890;SDS011;25564;53.312;9.790;2022-10-31T10:55:20;28.77;;;13.37;;
39890;SDS011;25564;53.312;9.790;2022-10-31T10:58:01;28.47;;;13.50;;
39890;SDS011;25564;53.312;9.790;2022-10-31T11:00:42;27.10;;;12.63;;
39890;SDS011;25564;53.312;9.790;2022-10-31T11:03:18;25.87;;;13.13;;
39890;SDS011;25564;53.312;9.790;2022-10-31T11:05:56;24.40;;;11.40;;
39890;SDS011;25564;53.312;9.790;2022-10-31T11:08:33;26.27;;;12.07;;
39890;SDS011;25564;53.312;9.790;2022-10-31T11:14:04;21.90;;;10.70;;
39890;SDS011;25564;53.312;9.790;2022-10-31T11:16:48;22.33;;;11.43;;
39890;SDS011;25564;53.312;9.790;2022-10-31T11:19:23;18.87;;;10.73;;
39890;SDS011;25564;53.312;9.790;2022-10-31T11:22:14;19.77;;;10.43;;
39890;SDS011;25564;53.312;9.790;2022-10-31T11:24:47;20.77;;;10.60;;
39890;SDS011;25564;53.312;9.790;2022-10-31T11:27:20;23.37;;;11.10;;
39890;SDS011;25564;53.312;9.790;2022-10-31T11:29:52;22.80;;;10.23;;
39890;SDS011;25564;53.312;9.790;2022-10-31T11:32:35;19.83;;;10.10;;
39890;SDS011;25564;53.312;9.790;2022-10-31T11:35:09;16.07;;;9.37;;
39890;SDS011;25564;53.312;9.790;2022-10-31T11:37:43;20.60;;;9.57;;
39890;SDS011;25564;53.312;9.790;2022-10-31T11:40:23;19.73;;;10.33;;
39890;SDS011;25564;53.312;9.790;2022-10-31T11:42:57;19.88;;;9.93;;
39890;SDS011;25564;53.312;9.790;2022-10-31T11:45:33;17.75;;;8.70;;
39890;SDS011;25564;53.312;9.790;2022-10-31T11:48:21;19.75;;;9.85;;
39890;SDS011;25564;53.312;9.790;2022-10-31T11:50:56;19.02;;;8.98;;
39890;SDS011;25564;53.312;9.790;2022-10-31T11:53:30;16.33;;;8.25;;
39890;SDS011;25564;53.312;9.790;2022-10-31T11:56:12;16.50;;;8.55;;
39890;SDS011;25564;53.312;9.790;2022-10-31T11:58:55;18.00;;;8.65;;
39890;SDS011;25564;53.312;9.790;2022-10-31T12:01:29;19.70;;;9.50;;
39890;SDS011;25564;53.312;9.790;2022-10-31T12:06:40;20.87;;;9.43;;
39890;SDS011;25564;53.312;9.790;2022-10-31T12:09:56;18.97;;;8.93;;
39890;SDS011;25564;53.312;9.790;2022-10-31T12:26:38;17.90;;;7.78;;
39890;SDS011;25564;53.312;9.790;2022-10-31T12:29:22;16.70;;;7.63;;
39890;SDS011;25564;53.312;9.790;2022-10-31T12:46:15;16.17;;;8.05;;
39890;SDS011;25564;53.312;9.790;2022-10-31T12:52:29;16.53;;;7.87;;
39890;SDS011;25564;53.312;9.790;2022-10-31T12:58:20;14.07;;;7.73;;
39890;SDS011;25564;53.312;9.790;2022-10-31T13:01:10;17.20;;;7.60;;
39890;SDS011;25564;53.312;9.790;2022-10-31T13:06:47;16.23;;;6.90;;
39890;SDS011;25564;53.312;9.790;2022-10-31T13:09:23;17.13;;;7.80;;
39890;SDS011;25564;53.312;9.790;2022-10-31T13:12:04;16.40;;;7.43;;
39890;SDS011;25564;53.312;9.790;2022-10-31T13:20:13;13.45;;;7.05;;
39890;SDS011;25564;53.312;9.790;2022-10-31T13:22:53;13.23;;;6.63;;
39890;SDS011;25564;53.312;9.790;2022-10-31T13:25:54;13.13;;;5.70;;
39890;SDS011;25564;53.312;9.790;2022-10-31T13:31:04;12.35;;;7.40;;
39890;SDS011;25564;53.312;9.790;2022-10-31T13:33:53;10.13;;;5.32;;
39890;SDS011;25564;53.312;9.790;2022-10-31T13:36:50;11.10;;;5.03;;
39890;SDS011;25564;53.312;9.790;2022-10-31T13:39:32;10.50;;;5.00;;
39890;SDS011;25564;53.312;9.790;2022-10-31T13:42:25;12.25;;;5.90;;
39890;SDS011;25564;53.312;9.790;2022-10-31T13:45:13;10.55;;;5.32;;
39890;SDS011;25564;53.312;9.790;2022-10-31T13:47:56;14.15;;;5.00;;
39890;SDS011;25564;53.312;9.790;2022-10-31T13:50:32;9.27;;;4.60;;
39890;SDS011;25564;53.312;9.790;2022-10-31T13:53:14;11.35;;;4.25;;
39890;SDS011;25564;53.312;9.790;2022-10-31T14:01:33;8.40;;;4.05;;
39890;SDS011;25564;53.312;9.790;2022-10-31T14:04:06;6.22;;;3.92;;
39890;SDS011;25564;53.312;9.790;2022-10-31T14:09:56;7.65;;;3.20;;
39890;SDS011;25564;53.312;9.790;2022-10-31T14:12:33;9.88;;;3.92;;
39890;SDS011;25564;53.312;9.790;2022-10-31T14:17:52;8.30;;;3.38;;
39890;SDS011;25564;53.312;9.790;2022-10-31T14:23:33;8.07;;;2.90;;
39890;SDS011;25564;53.312;9.790;2022-10-31T14:26:19;7.07;;;2.67;;
39890;SDS011;25564;53.312;9.790;2022-10-31T14:28:54;8.10;;;3.27;;
39890;SDS011;25564;53.312;9.790;2022-10-31T14:36:47;7.60;;;3.00;;
39890;SDS011;25564;53.312;9.790;2022-10-31T14:39:24;8.63;;;3.00;;
39890;SDS011;25564;53.312;9.790;2022-10-31T14:45:39;8.47;;;3.50;;
39890;SDS011;25564;53.312;9.790;2022-10-31T14:51:21;7.43;;;2.87;;
39890;SDS011;25564;53.312;9.790;2022-10-31T14:53:56;9.00;;;3.60;;
39890;SDS011;25564;53.312;9.790;2022-10-31T14:56:32;8.57;;;3.77;;
39890;SDS011;25564;53.312;9.790;2022-10-31T14:59:11;4.95;;;2.80;;
39890;SDS011;25564;53.312;9.790;2022-10-31T15:02:21;11.10;;;3.10;;
39890;SDS011;25564;53.312;9.790;2022-10-31T15:04:48;5.23;;;2.63;;
39890;SDS011;25564;53.312;9.790;2022-10-31T15:07:23;7.20;;;3.13;;
39890;SDS011;25564;53.312;9.790;2022-10-31T15:10:04;7.53;;;2.60;;
39890;SDS011;25564;53.312;9.790;2022-10-31T15:12:38;5.47;;;2.60;;
39890;SDS011;25564;53.312;9.790;2022-10-31T15:15:23;3.80;;;2.77;;
39890;SDS011;25564;53.312;9.790;2022-10-31T15:17:57;4.88;;;2.20;;
39890;SDS011;25564;53.312;9.790;2022-10-31T15:20:35;7.00;;;2.40;;
39890;SDS011;25564;53.312;9.790;2022-10-31T15:23:21;6.77;;;2.40;;
39890;SDS011;25564;53.312;9.790;2022-10-31T15:26:00;7.90;;;2.67;;
39890;SDS011;25564;53.312;9.790;2022-10-31T15:28:35;5.22;;;2.63;;
39890;SDS011;25564;53.312;9.790;2022-10-31T15:31:12;7.10;;;3.07;;
39890;SDS011;25564;53.312;9.790;2022-10-31T15:33:47;5.13;;;3.07;;
39890;SDS011;25564;53.312;9.790;2022-10-31T15:36:22;6.43;;;3.10;;
39890;SDS011;25564;53.312;9.790;2022-10-31T15:39:00;7.20;;;3.60;;
39890;SDS011;25564;53.312;9.790;2022-10-31T15:44:12;6.27;;;3.47;;
39890;SDS011;25564;53.312;9.790;2022-10-31T15:49:49;8.40;;;4.00;;
39890;SDS011;25564;53.312;9.790;2022-10-31T15:52:27;6.63;;;4.60;;
39890;SDS011;25564;53.312;9.790;2022-10-31T15:55:14;12.70;;;5.37;;
39890;SDS011;25564;53.312;9.790;2022-10-31T16:00:26;9.03;;;4.63;;
39890;SDS011;25564;53.312;9.790;2022-10-31T16:05:55;12.57;;;5.33;;
39890;SDS011;25564;53.312;9.790;2022-10-31T16:13:37;12.13;;;6.13;;
39890;SDS011;25564;53.312;9.790;2022-10-31T16:16:31;13.17;;;6.40;;
39890;SDS011;25564;53.312;9.790;2022-10-31T16:19:11;13.77;;;6.03;;
39890;SDS011;25564;53.312;9.790;2022-10-31T16:22:06;12.33;;;6.20;;
39890;SDS011;25564;53.312;9.790;2022-10-31T16:24:52;15.57;;;6.50;;
39890;SDS011;25564;53.312;9.790;2022-10-31T16:27:39;19.37;;;6.37;;
39890;SDS011;25564;53.312;9.790;2022-10-31T16:30:40;13.77;;;6.63;;
39890;SDS011;25564;53.312;9.790;2022-10-31T16:39:06;15.70;;;6.40;;
39890;SDS011;25564;53.312;9.790;2022-10-31T16:41:38;9.57;;;5.80;;
39890;SDS011;25564;53.312;9.790;2022-10-31T16:44:30;11.83;;;6.53;;
39890;SDS011;25564;53.312;9.790;2022-10-31T16:47:14;16.57;;;6.23;;
39890;SDS011;25564;53.312;9.790;2022-10-31T16:49:47;14.97;;;6.47;;
39890;SDS011;25564;53.312;9.790;2022-10-31T16:52:20;11.27;;;6.13;;
39890;SDS011;25564;53.312;9.790;2022-10-31T16:54:52;13.00;;;6.00;;
39890;SDS011;25564;53.312;9.790;2022-10-31T16:57:26;12.70;;;5.70;;
39890;SDS011;25564;53.312;9.790;2022-10-31T17:00:00;11.75;;;6.30;;
39890;SDS011;25564;53.312;9.790;2022-10-31T17:02:32;14.13;;;6.07;;
39890;SDS011;25564;53.312;9.790;2022-10-31T17:05:04;12.97;;;5.80;;
39890;SDS011;25564;53.312;9.790;2022-10-31T17:07:36;10.77;;;5.60;;
39890;SDS011;25564;53.312;9.790;2022-10-31T17:10:09;13.03;;;6.40;;
39890;SDS011;25564;53.312;9.790;2022-10-31T17:12:43;11.70;;;5.60;;
39890;SDS011;25564;53.312;9.790;2022-10-31T17:15:17;12.00;;;5.87;;
39890;SDS011;25564;53.312;9.790;2022-10-31T17:17:51;13.47;;;5.80;;
39890;SDS011;25564;53.312;9.790;2022-10-31T17:20:27;13.53;;;5.90;;
39890;SDS011;25564;53.312;9.790;2022-10-31T17:23:00;13.47;;;6.17;;
39890;SDS011;25564;53.312;9.790;2022-10-31T17:25:33;10.60;;;5.77;;
39890;SDS011;25564;53.312;9.790;2022-10-31T17:28:06;11.00;;;5.37;;
39890;SDS011;25564;53.312;9.790;2022-10-31T17:30:38;9.67;;;5.13;;
39890;SDS011;25564;53.312;9.790;2022-10-31T17:33:12;17.87;;;6.50;;
39890;SDS011;25564;53.312;9.790;2022-10-31T17:35:45;13.70;;;6.07;;